createdAt,value
2018-06-13T10:16:33.546Z,4.70
2018-06-13T10:19:02.666Z,3.23
2018-06-13T10:21:31.754Z,2.50
2018-06-13T10:24:03.357Z,4.60
2018-06-13T10:26:33.789Z,2.73
2018-06-13T10:29:02.522Z,4.17
2018-06-13T10:31:31.271Z,5.97
2018-06-13T10:34:00.236Z,4.17
2018-06-13T10:36:29.676Z,4.13
2018-06-13T10:38:58.473Z,3.93
2018-06-13T10:41:27.551Z,3.47
2018-06-13T10:43:56.286Z,4.00
2018-06-13T10:46:25.024Z,4.90
2018-06-13T10:48:55.114Z,4.65
2018-06-13T10:51:24.196Z,4.17
2018-06-13T10:53:52.947Z,6.13
2018-06-13T10:56:22.136Z,6.87
2018-06-13T10:58:50.946Z,3.87
2018-06-13T11:01:20.348Z,3.60
2018-06-13T11:03:50.168Z,6.03
2018-06-13T11:06:18.982Z,6.50
2018-06-13T11:08:50.590Z,4.53
2018-06-13T11:11:19.687Z,3.03
2018-06-13T11:13:48.914Z,6.43
2018-06-13T11:16:17.832Z,4.60
2018-06-13T11:18:47.133Z,4.90
2018-06-13T11:21:16.493Z,4.57
2018-06-13T11:23:45.477Z,3.10
2018-06-13T11:26:14.327Z,8.47
2018-06-13T11:28:43.012Z,3.73
2018-06-13T11:31:11.957Z,5.40
2018-06-13T11:33:40.478Z,6.13
2018-06-13T11:36:09.781Z,9.73
2018-06-13T11:38:39.075Z,2.47
2018-06-13T11:41:08.477Z,3.67
2018-06-13T11:43:37.377Z,4.77
2018-06-13T11:46:07.029Z,5.60
2018-06-13T11:48:36.266Z,5.17
2018-06-13T11:51:05.308Z,2.93
2018-06-13T11:53:34.195Z,2.97
2018-06-13T11:56:03.002Z,5.37
2018-06-13T11:58:32.369Z,4.37
2018-06-13T12:01:01.715Z,5.00
2018-06-13T12:03:30.518Z,4.77
2018-06-13T12:05:59.338Z,4.93
2018-06-13T12:08:30.849Z,6.30
2018-06-13T12:11:00.164Z,4.93
2018-06-13T12:13:31.091Z,3.50
2018-06-13T12:15:59.889Z,5.37
2018-06-13T12:18:29.938Z,6.03
2018-06-13T12:20:58.971Z,3.93
2018-06-13T12:23:28.320Z,4.23
2018-06-13T12:25:57.496Z,6.20
2018-06-13T12:28:26.525Z,5.20
2018-06-13T12:30:55.741Z,4.00
2018-06-13T12:33:24.778Z,6.97
2018-06-13T12:35:53.827Z,7.93
2018-06-13T12:38:22.741Z,3.23
2018-06-13T12:40:52.070Z,6.15
2018-06-13T12:43:21.847Z,6.57
2018-06-13T12:45:51.030Z,6.73
2018-06-13T12:48:19.713Z,5.30
2018-06-13T12:50:48.794Z,8.23
2018-06-13T12:53:17.699Z,6.00
2018-06-13T12:55:46.731Z,2.97
2018-06-13T12:58:15.887Z,6.23
2018-06-13T13:00:44.516Z,6.30
2018-06-13T13:03:14.522Z,5.33
2018-06-13T13:05:43.442Z,4.90
2018-06-13T13:08:12.868Z,4.73
2018-06-13T13:10:41.309Z,6.73
2018-06-13T13:13:10.734Z,2.50
2018-06-13T13:15:39.208Z,5.93
2018-06-13T13:18:07.591Z,6.80
2018-06-13T13:20:37.726Z,2.53
2018-06-13T13:23:07.660Z,4.27
2018-06-13T13:25:36.839Z,1.37
2018-06-13T13:28:06.004Z,4.67
2018-06-13T13:30:34.906Z,3.80
2018-06-13T13:33:03.868Z,2.60
2018-06-13T13:35:32.916Z,4.27
2018-06-13T13:38:02.432Z,1.73
2018-06-13T13:40:31.129Z,2.50
2018-06-13T13:43:00.338Z,1.57
2018-06-13T13:45:29.784Z,2.50
2018-06-13T13:47:58.620Z,1.87
2018-06-13T13:50:27.120Z,1.20
2018-06-13T13:52:56.065Z,1.67
2018-06-13T13:55:25.088Z,2.40
2018-06-13T13:57:55.124Z,3.73
2018-06-13T14:00:24.404Z,4.03
2018-06-13T14:02:53.685Z,1.57
2018-06-13T14:05:23.253Z,4.47
2018-06-13T14:07:52.128Z,3.03
2018-06-13T14:10:21.155Z,4.27
2018-06-13T14:12:51.137Z,3.20
2018-06-13T14:15:20.497Z,4.63
2018-06-13T14:17:49.335Z,4.90
2018-06-13T14:20:18.257Z,2.70
2018-06-13T14:22:47.644Z,3.60
2018-06-13T14:25:16.607Z,3.63
2018-06-13T14:27:45.757Z,2.07
2018-06-13T14:30:14.152Z,3.07
2018-06-13T14:32:42.555Z,3.80
2018-06-13T14:35:11.623Z,3.63
2018-06-13T14:37:40.103Z,4.60
2018-06-13T14:40:09.289Z,5.20
2018-06-13T14:42:38.366Z,2.50
2018-06-13T14:45:08.292Z,5.03
2018-06-13T14:47:42.259Z,2.33
2018-06-13T14:50:11.255Z,4.03
2018-06-13T14:52:40.527Z,3.47
2018-06-13T14:55:09.460Z,1.60
2018-06-13T14:57:38.444Z,2.90
2018-06-13T15:00:07.132Z,1.77
2018-06-13T15:02:37.335Z,1.53
2018-06-13T15:05:06.384Z,3.03
2018-06-13T15:07:35.244Z,2.10
2018-06-13T15:10:05.239Z,1.30
2018-06-13T15:12:33.850Z,2.50
2018-06-13T15:15:03.354Z,2.93
2018-06-13T15:17:32.527Z,1.90
2018-06-13T15:20:01.880Z,2.20
2018-06-13T15:22:31.177Z,0.83
2018-06-13T15:25:00.554Z,2.10
2018-06-13T15:27:30.163Z,1.43
2018-06-13T15:29:59.111Z,1.00
2018-06-13T15:32:27.659Z,2.80
2018-06-13T15:34:56.168Z,0.80
2018-06-13T15:37:24.980Z,1.67
2018-06-13T15:39:53.996Z,0.90
2018-06-13T15:42:22.986Z,0.80
2018-06-13T15:44:52.487Z,0.90
2018-06-13T15:47:21.540Z,1.43
2018-06-13T15:49:50.727Z,1.43
2018-06-13T15:52:19.885Z,0.80
2018-06-13T15:54:48.662Z,1.00
2018-06-13T15:57:19.475Z,0.83
2018-06-13T15:59:48.756Z,0.70
2018-06-13T16:02:18.443Z,0.93
2018-06-13T16:04:46.883Z,0.70
2018-06-13T16:07:16.188Z,0.70
2018-06-13T16:09:45.687Z,1.63
2018-06-13T16:12:15.568Z,1.40
2018-06-13T16:14:44.327Z,0.67
2018-06-13T16:17:13.157Z,0.60
2018-06-13T16:19:42.083Z,0.63
2018-06-13T16:22:11.553Z,0.73
2018-06-13T16:24:40.748Z,0.70
2018-06-13T16:27:09.678Z,1.43
2018-06-13T16:29:39.162Z,0.63
2018-06-13T16:32:08.192Z,0.80
2018-06-13T16:34:36.847Z,0.70
2018-06-13T16:37:06.043Z,2.23
2018-06-13T16:39:34.642Z,0.70
2018-06-13T16:42:03.525Z,1.03
2018-06-13T16:44:32.735Z,1.80
2018-06-13T16:47:02.164Z,2.30
2018-06-13T16:49:31.003Z,0.80
2018-06-13T16:52:00.440Z,1.50
2018-06-13T16:54:40.925Z,0.73
2018-06-13T16:57:10.150Z,1.77
2018-06-13T16:59:39.472Z,0.70
2018-06-13T17:02:08.899Z,1.90
2018-06-13T17:04:37.550Z,1.87
2018-06-13T17:07:05.972Z,2.93
2018-06-13T17:09:34.080Z,1.17
2018-06-13T17:12:03.428Z,1.40
2018-06-13T17:16:55.640Z,2.53
2018-06-13T17:19:24.421Z,2.27
2018-06-13T17:21:53.184Z,2.03
2018-06-13T17:24:21.805Z,1.43
2018-06-13T17:26:50.613Z,1.77
2018-06-13T17:29:19.958Z,1.63
2018-06-13T17:31:48.702Z,1.13
2018-06-13T17:34:17.852Z,0.83
2018-06-13T17:36:47.112Z,1.47
2018-06-13T17:39:16.278Z,1.50
2018-06-13T17:41:44.961Z,1.50
2018-06-13T17:44:13.582Z,1.53
2018-06-13T17:46:42.916Z,0.87
2018-06-13T17:49:12.505Z,1.20
2018-06-13T17:51:41.534Z,0.70
2018-06-13T17:54:10.306Z,1.33
2018-06-13T17:56:39.106Z,2.10
2018-06-13T17:59:08.351Z,1.67
2018-06-13T18:01:37.372Z,0.93
2018-06-13T18:04:06.716Z,1.60
2018-06-13T18:06:36.111Z,2.73
2018-06-13T18:09:08.670Z,2.40
2018-06-13T18:11:38.346Z,1.57
2018-06-13T18:14:09.313Z,1.53
2018-06-13T18:16:38.607Z,0.90
2018-06-13T18:19:07.919Z,2.03
2018-06-13T18:21:37.066Z,1.50
2018-06-13T18:24:06.078Z,1.30
2018-06-13T18:26:35.160Z,1.30
2018-06-13T18:29:03.958Z,2.00
2018-06-13T18:31:32.689Z,0.70
2018-06-13T18:34:01.767Z,2.10
2018-06-13T18:36:30.489Z,1.40
2018-06-13T18:38:59.266Z,1.97
2018-06-13T18:41:28.196Z,1.07
2018-06-13T18:43:56.997Z,0.83
2018-06-13T18:46:25.849Z,1.67
2018-06-13T18:48:54.948Z,1.73
2018-06-13T18:51:24.043Z,0.93
2018-06-13T18:53:53.355Z,1.70
2018-06-13T18:56:22.365Z,1.37
2018-06-13T18:58:53.660Z,1.60
2018-06-13T19:01:22.266Z,0.80
2018-06-13T19:03:50.892Z,0.63
2018-06-13T19:06:20.198Z,0.60
2018-06-13T19:08:49.693Z,1.87
2018-06-13T19:11:18.613Z,1.00
2018-06-13T19:13:47.798Z,1.40
2018-06-13T19:16:16.883Z,1.53
2018-06-13T19:18:46.072Z,1.33
2018-06-13T19:21:16.127Z,0.60
2018-06-13T19:23:44.805Z,0.60
2018-06-13T19:26:13.480Z,0.40
2018-06-13T19:28:42.118Z,0.50
2018-06-13T19:31:11.616Z,0.50
2018-06-13T19:33:41.050Z,0.47
2018-06-13T19:36:11.265Z,0.87
2018-06-13T19:38:40.259Z,0.50
2018-06-13T19:41:09.586Z,0.40
2018-06-13T19:43:39.818Z,0.50
2018-06-13T19:46:09.200Z,0.40
2018-06-13T19:48:43.678Z,0.50
2018-06-13T19:51:12.128Z,0.50
2018-06-13T19:53:46.881Z,0.60
2018-06-13T19:56:17.866Z,0.70
2018-06-13T19:58:46.441Z,0.50
2018-06-13T20:01:15.252Z,0.60
2018-06-13T20:03:49.522Z,1.03
2018-06-13T20:07:44.013Z,0.60
2018-06-13T20:10:13.228Z,0.50
2018-06-13T20:12:47.328Z,0.97
2018-06-13T20:15:21.784Z,0.50
2018-06-13T20:17:57.211Z,0.60
2018-06-13T20:20:26.442Z,0.73
2018-06-13T20:22:55.134Z,1.23
2018-06-13T20:25:29.793Z,0.40
2018-06-13T20:28:03.973Z,1.00
2018-06-13T20:30:38.339Z,0.60
2018-06-13T20:33:07.682Z,1.07
2018-06-13T20:35:36.279Z,0.50
2018-06-13T20:38:05.983Z,0.47
2018-06-13T20:40:35.246Z,0.50
2018-06-13T20:43:04.594Z,0.50
2018-06-13T20:45:33.285Z,0.87
2018-06-13T20:48:02.132Z,0.50
2018-06-13T20:50:31.020Z,1.03
2018-06-13T20:53:00.129Z,0.80
2018-06-13T20:55:29.392Z,0.50
2018-06-13T20:57:58.606Z,0.77
2018-06-13T21:00:27.530Z,0.60
2018-06-13T21:02:56.630Z,0.60
2018-06-13T21:05:25.773Z,0.60
2018-06-13T21:07:54.627Z,0.77
2018-06-13T21:10:23.219Z,0.77
2018-06-13T21:12:52.045Z,0.50
2018-06-13T21:15:23.805Z,0.60
2018-06-13T21:17:52.442Z,0.70
2018-06-13T21:20:21.681Z,1.57
2018-06-13T21:22:51.573Z,1.03
2018-06-13T21:25:20.409Z,0.50
2018-06-13T21:27:48.827Z,0.60
2018-06-13T21:30:17.286Z,0.60
2018-06-13T21:32:46.148Z,0.60
2018-06-13T21:35:15.167Z,0.70
2018-06-13T21:37:44.601Z,0.50
2018-06-13T21:40:14.600Z,0.60
2018-06-13T21:42:44.019Z,0.70
2018-06-13T21:45:13.319Z,0.60
2018-06-13T21:47:42.044Z,0.50
2018-06-13T21:50:11.227Z,1.07
2018-06-13T21:52:39.809Z,0.60
2018-06-13T21:55:08.438Z,0.60
2018-06-13T21:57:37.018Z,0.60
2018-06-13T22:00:08.977Z,0.87
2018-06-13T22:02:38.015Z,1.23
2018-06-13T22:05:07.129Z,1.13
2018-06-13T22:07:36.730Z,0.70
2018-06-13T22:10:05.613Z,0.60
2018-06-13T22:12:34.872Z,1.03
2018-06-13T22:15:04.621Z,0.77
2018-06-13T22:17:33.304Z,0.57
2018-06-13T22:20:02.056Z,1.50
2018-06-13T22:22:31.013Z,0.63
2018-06-13T22:24:59.708Z,0.70
2018-06-13T22:27:29.015Z,0.70
2018-06-13T22:29:57.745Z,0.60
2018-06-13T22:32:27.256Z,0.80
2018-06-13T22:34:56.865Z,1.20
2018-06-13T22:38:51.077Z,0.90
2018-06-13T22:41:21.757Z,0.60
2018-06-13T22:43:51.079Z,0.77
2018-06-13T22:46:20.138Z,0.87
2018-06-13T22:48:50.217Z,1.07
2018-06-13T22:51:19.559Z,0.60
2018-06-13T22:53:48.035Z,0.80
2018-06-13T22:56:16.468Z,1.37
2018-06-13T22:58:45.469Z,0.60
2018-06-13T23:01:15.299Z,1.60
2018-06-13T23:03:44.663Z,0.63
2018-06-13T23:07:38.489Z,1.00
2018-06-13T23:10:07.703Z,0.70
2018-06-13T23:12:36.411Z,0.63
2018-06-13T23:15:06.605Z,1.23
2018-06-13T23:17:35.737Z,0.83
2018-06-13T23:20:04.545Z,1.47
2018-06-13T23:22:34.398Z,0.70
2018-06-13T23:25:03.678Z,0.80
2018-06-13T23:27:32.058Z,0.70
2018-06-13T23:30:02.499Z,0.93
2018-06-13T23:32:31.355Z,0.60
2018-06-13T23:35:00.340Z,0.97
2018-06-13T23:37:29.457Z,0.93
2018-06-13T23:39:59.026Z,1.10
2018-06-13T23:42:28.965Z,0.87
2018-06-13T23:44:58.040Z,0.87
2018-06-13T23:49:51.246Z,0.63
2018-06-13T23:52:19.831Z,0.80
2018-06-13T23:54:48.857Z,0.83
2018-06-13T23:57:17.915Z,0.87
2018-06-13T23:59:46.966Z,1.10
